Terminal Aerodrome Forecast
Issued by NWS Sterling, VA

Current Version | Previous Version | Graphics & Text | Print | Product List | Glossary On
Versions: 1 2 3 4 5 6 7 8 9 10 11 12 13 14 15 16 17 18 19
704
FTUS41 KLWX 242335
TAFDCA
TAF
KDCA 242335Z 2500/2524 06013KT P6SM -RA OVC030
     FM250100 06011G18KT P6SM -RA OVC015
     FM250300 05012G19KT P6SM -RA OVC008
     FM250600 05011G18KT 3SM -RA OVC003=

USA.gov is the U.S. government's official web portal to all federal, state and local government web resources and services.